createdAt,value
2023-06-21T00:00:58.222Z,21.6
2023-06-21T00:03:58.279Z,21.6
2023-06-21T00:06:58.467Z,21.5
2023-06-21T00:09:58.221Z,21.5
2023-06-21T00:12:58.230Z,21.5
2023-06-21T00:15:58.232Z,21.5
2023-06-21T00:18:58.233Z,21.5
2023-06-21T00:21:58.236Z,21.5
2023-06-21T00:24:58.241Z,21.5
2023-06-21T00:27:58.238Z,21.5
2023-06-21T00:30:58.321Z,21.5
2023-06-21T00:33:58.230Z,21.4
2023-06-21T00:36:58.234Z,21.4
2023-06-21T00:39:58.230Z,21.3
2023-06-21T00:42:58.236Z,21.3
2023-06-21T00:45:58.233Z,21.3
2023-06-21T00:48:58.233Z,21.3
2023-06-21T00:51:58.238Z,21.2
2023-06-21T00:54:58.231Z,21.2
2023-06-21T00:57:58.231Z,21.2
2023-06-21T01:00:58.245Z,21.1
2023-06-21T01:03:58.240Z,21.1
2023-06-21T01:06:58.246Z,21
2023-06-21T01:09:58.253Z,20.9
2023-06-21T01:12:58.258Z,20.9
2023-06-21T01:15:58.246Z,20.8
2023-06-21T01:18:58.251Z,20.7
2023-06-21T01:21:58.248Z,20.7
2023-06-21T01:24:58.250Z,20.7
2023-06-21T01:27:58.251Z,20.6
2023-06-21T01:30:58.256Z,20.6
2023-06-21T01:33:58.250Z,20.5
2023-06-21T01:36:58.258Z,20.5
2023-06-21T01:39:58.256Z,20.5
2023-06-21T01:42:58.258Z,20.5
2023-06-21T01:45:58.317Z,20.4
2023-06-21T01:48:58.260Z,20.3
2023-06-21T01:51:58.260Z,20.2
2023-06-21T01:54:58.270Z,20.2
2023-06-21T01:57:58.269Z,20.1
2023-06-21T02:00:58.269Z,20.1
2023-06-21T02:03:58.278Z,20
2023-06-21T02:06:58.279Z,19.9
2023-06-21T02:09:58.278Z,19.8
2023-06-21T02:12:58.283Z,19.8
2023-06-21T02:15:58.294Z,19.8
2023-06-21T02:18:58.300Z,19.7
2023-06-21T02:21:58.284Z,19.6
2023-06-21T02:24:58.288Z,19.5
2023-06-21T02:27:58.298Z,19.4
2023-06-21T02:30:58.307Z,19.4
2023-06-21T02:33:58.341Z,19.3
2023-06-21T02:36:58.312Z,19.3
2023-06-21T02:39:58.310Z,19.3
2023-06-21T02:42:58.318Z,19.2
2023-06-21T02:45:58.333Z,19.3
2023-06-21T02:48:58.332Z,19.3
2023-06-21T02:51:58.317Z,19.3
2023-06-21T02:54:58.335Z,19.4
2023-06-21T02:57:58.333Z,19.5
2023-06-21T03:00:58.353Z,19.5
2023-06-21T03:03:58.421Z,19.6
2023-06-21T03:06:58.335Z,19.7
2023-06-21T03:09:58.349Z,19.7
2023-06-21T03:12:58.352Z,19.7
2023-06-21T03:15:58.359Z,19.7
2023-06-21T03:18:58.351Z,19.7
2023-06-21T03:21:58.360Z,19.7
2023-06-21T03:24:58.377Z,19.8
2023-06-21T03:27:58.378Z,19.7
2023-06-21T03:30:58.383Z,19.8
2023-06-21T03:33:58.382Z,19.8
2023-06-21T03:36:58.385Z,19.8
2023-06-21T03:39:58.393Z,19.8
2023-06-21T03:42:58.420Z,19.8
2023-06-21T03:45:58.451Z,19.8
2023-06-21T03:48:58.416Z,19.8
2023-06-21T03:51:58.424Z,19.8
2023-06-21T03:54:58.430Z,19.8
2023-06-21T03:57:58.439Z,19.9
2023-06-21T04:00:58.442Z,19.9
2023-06-21T04:03:58.482Z,20
2023-06-21T04:06:58.476Z,20
2023-06-21T04:09:58.482Z,20.1
2023-06-21T04:12:58.520Z,20.1
2023-06-21T04:15:58.485Z,20.2
2023-06-21T04:18:58.493Z,20.2
2023-06-21T04:21:58.500Z,20.3
2023-06-21T04:24:58.500Z,20.3
2023-06-21T04:27:58.509Z,20.4
2023-06-21T04:30:58.512Z,20.4
2023-06-21T04:33:58.519Z,20.5
2023-06-21T04:36:58.523Z,20.6
2023-06-21T04:40:08.458Z,20.6
2023-06-21T04:42:58.528Z,20.8
2023-06-21T04:45:58.561Z,20.9
2023-06-21T04:48:58.549Z,21
2023-06-21T04:51:58.546Z,21.1
2023-06-21T04:54:58.556Z,21.1
2023-06-21T04:57:58.568Z,21.1
2023-06-21T05:00:58.603Z,21.1
2023-06-21T05:03:58.593Z,21.1
2023-06-21T05:06:58.581Z,21.2
2023-06-21T05:09:58.591Z,21.3
2023-06-21T05:12:58.595Z,21.4
2023-06-21T05:15:58.610Z,21.3
2023-06-21T05:18:58.624Z,21.3
2023-06-21T05:21:58.618Z,21.4
2023-06-21T05:24:58.629Z,21.5
2023-06-21T05:27:58.642Z,21.7
2023-06-21T05:30:58.698Z,22
2023-06-21T05:33:58.647Z,22.1
2023-06-21T05:36:58.670Z,22.3
2023-06-21T05:39:58.670Z,22.4
2023-06-21T05:42:58.677Z,22.4
2023-06-21T05:45:58.738Z,22.7
2023-06-21T05:48:58.696Z,23.1
2023-06-21T05:51:58.699Z,23.4
2023-06-21T05:54:58.699Z,23.5
2023-06-21T05:57:58.732Z,23.7
2023-06-21T06:01:03.530Z,24
2023-06-21T06:03:58.812Z,24
2023-06-21T06:06:58.726Z,23.6
2023-06-21T06:09:58.743Z,23.8
2023-06-21T06:12:58.745Z,24.1
2023-06-21T06:15:58.754Z,24.3
2023-06-21T06:18:58.791Z,24.4
2023-06-21T06:21:58.748Z,24.1
2023-06-21T06:24:58.766Z,24
2023-06-21T06:27:58.776Z,24.2
2023-06-21T06:30:58.801Z,24.4
2023-06-21T06:33:58.800Z,24.4
2023-06-21T06:37:11.577Z,24.1
2023-06-21T06:39:58.816Z,23.8
2023-06-21T06:42:58.792Z,24.1
2023-06-21T06:45:58.808Z,24.4
2023-06-21T06:48:58.793Z,24.8
2023-06-21T06:51:58.808Z,24.9
2023-06-21T06:54:58.810Z,25.1
2023-06-21T06:58:05.289Z,25.4
2023-06-21T07:00:58.830Z,25.8
2023-06-21T07:03:58.867Z,26.3
2023-06-21T07:06:58.814Z,26.6
2023-06-21T07:09:58.820Z,26.9
2023-06-21T07:12:58.827Z,26.8
2023-06-21T07:15:58.832Z,26.8
2023-06-21T07:18:58.852Z,27.1
2023-06-21T07:21:58.869Z,27.1
2023-06-21T07:24:58.855Z,27.1
2023-06-21T07:27:58.851Z,27.2
2023-06-21T07:30:58.881Z,27.2
2023-06-21T07:33:58.867Z,27.1
2023-06-21T07:36:58.855Z,27.2
2023-06-21T07:39:58.944Z,27.5
2023-06-21T07:42:58.963Z,27.5
2023-06-21T07:46:10.756Z,27.3
2023-06-21T07:48:58.860Z,27.4
2023-06-21T07:51:58.873Z,27.5
2023-06-21T07:54:58.866Z,27.7
2023-06-21T07:57:58.889Z,27.8
2023-06-21T08:00:58.871Z,28.2
2023-06-21T08:03:58.898Z,28.2
2023-06-21T08:06:58.876Z,27.9
2023-06-21T08:09:58.896Z,27.8
2023-06-21T08:12:58.893Z,27.8
2023-06-21T08:15:58.933Z,27.8
2023-06-21T08:18:58.905Z,28
2023-06-21T08:21:58.922Z,28.2
2023-06-21T08:24:58.947Z,28.2
2023-06-21T08:27:58.953Z,28.3
2023-06-21T08:30:58.963Z,28.5
2023-06-21T08:33:58.982Z,28.8
2023-06-21T08:36:58.990Z,28.8
2023-06-21T08:39:59.012Z,28.6
2023-06-21T08:42:59.022Z,28.3
2023-06-21T08:45:59.114Z,28.2
2023-06-21T08:48:59.034Z,28.2
2023-06-21T08:51:59.070Z,28.1
2023-06-21T08:54:59.062Z,28.5
2023-06-21T08:57:59.080Z,28.7
2023-06-21T09:00:59.118Z,29
2023-06-21T09:03:59.440Z,29.3
2023-06-21T09:06:59.118Z,29.7
2023-06-21T09:09:59.135Z,29.8
2023-06-21T09:12:59.132Z,30.1
2023-06-21T09:15:59.158Z,30.1
2023-06-21T09:18:59.163Z,30.4
2023-06-21T09:21:59.184Z,30.4
2023-06-21T09:24:59.185Z,30.6
2023-06-21T09:27:59.225Z,30.8
2023-06-21T09:30:59.211Z,31.1
2023-06-21T09:33:59.252Z,31
2023-06-21T09:36:59.245Z,31
2023-06-21T09:39:59.265Z,31
2023-06-21T09:42:59.260Z,31.2
2023-06-21T09:45:59.285Z,31.4
2023-06-21T09:48:59.323Z,31.4
2023-06-21T09:51:59.319Z,31.3
2023-06-21T09:54:59.332Z,31.1
2023-06-21T09:57:59.348Z,31.5
2023-06-21T10:01:01.435Z,31.8
2023-06-21T10:03:59.459Z,31.8
2023-06-21T10:06:59.384Z,31.5
2023-06-21T10:09:59.406Z,31.3
2023-06-21T10:12:59.419Z,31.2
2023-06-21T10:15:59.462Z,30.9
2023-06-21T10:18:59.449Z,31.1
2023-06-21T10:21:59.459Z,31.5
2023-06-21T10:24:59.462Z,31.8
2023-06-21T10:27:59.493Z,31.9
2023-06-21T10:30:59.497Z,31.4
2023-06-21T10:33:59.529Z,31.1
2023-06-21T10:36:59.528Z,31
2023-06-21T10:40:06.071Z,31
2023-06-21T10:42:59.581Z,30.9
2023-06-21T10:45:59.604Z,31.1
2023-06-21T10:48:59.594Z,30.9
2023-06-21T10:51:59.629Z,31.1
2023-06-21T10:54:59.641Z,31.4
2023-06-21T10:57:59.666Z,31.6
2023-06-21T11:00:59.695Z,31.3
2023-06-21T11:03:59.709Z,30.7
2023-06-21T11:06:59.713Z,30.5
2023-06-21T11:09:59.732Z,30.9
2023-06-21T11:12:59.775Z,31
2023-06-21T11:15:59.771Z,31.3
2023-06-21T11:18:59.772Z,31.6
2023-06-21T11:21:59.811Z,31.8
2023-06-21T11:24:59.829Z,31.8
2023-06-21T11:27:59.845Z,31.6
2023-06-21T11:30:59.888Z,31
2023-06-21T11:33:59.920Z,30.3
2023-06-21T11:36:59.906Z,29.8
2023-06-21T11:39:59.929Z,29.6
2023-06-21T11:42:59.959Z,30.2
2023-06-21T11:45:59.967Z,30.5
2023-06-21T11:48:59.980Z,30.9
2023-06-21T11:52:00.003Z,30.8
2023-06-21T11:55:00.007Z,30.9
2023-06-21T11:58:00.074Z,30.9
2023-06-21T12:01:00.062Z,30.4
2023-06-21T12:04:00.431Z,30.3
2023-06-21T12:07:00.097Z,30.1
2023-06-21T12:10:00.284Z,30
2023-06-21T12:13:00.151Z,30.1
2023-06-21T12:16:00.297Z,30.2
2023-06-21T12:19:00.197Z,30
2023-06-21T12:22:00.235Z,30.1
2023-06-21T12:25:00.224Z,30.3
2023-06-21T12:28:00.264Z,30.6
2023-06-21T12:31:00.420Z,30.8
2023-06-21T12:34:00.302Z,31.1
2023-06-21T12:37:00.346Z,31.5
2023-06-21T12:40:00.344Z,31.8
2023-06-21T12:43:00.366Z,32
2023-06-21T12:46:00.381Z,32.1
2023-06-21T12:49:00.394Z,32
2023-06-21T12:52:00.410Z,31.6
2023-06-21T12:55:00.421Z,31.5
2023-06-21T12:58:00.443Z,31.8
2023-06-21T13:01:00.443Z,32
2023-06-21T13:04:00.592Z,32
2023-06-21T13:07:00.455Z,31.8
2023-06-21T13:10:00.460Z,31.8
2023-06-21T13:13:00.468Z,31.5
2023-06-21T13:16:00.473Z,31.3
2023-06-21T13:19:00.497Z,30.9
2023-06-21T13:22:00.487Z,30.6
2023-06-21T13:25:00.507Z,30.7
2023-06-21T13:28:00.528Z,30.9
2023-06-21T13:31:00.539Z,30.7
2023-06-21T13:34:00.518Z,30.3
2023-06-21T13:37:00.536Z,30.1
2023-06-21T13:40:00.512Z,30.2
2023-06-21T13:43:00.524Z,30.3
2023-06-21T13:46:00.610Z,30.5
2023-06-21T13:49:00.534Z,30.5
2023-06-21T13:52:00.524Z,30.6
2023-06-21T13:55:00.527Z,30.9
2023-06-21T13:58:00.645Z,30.9
2023-06-21T14:01:00.543Z,30.6
2023-06-21T14:04:00.667Z,30.2
2023-06-21T14:07:00.560Z,29.8
2023-06-21T14:10:00.558Z,29.5
2023-06-21T14:13:00.570Z,29.4
2023-06-21T14:16:00.583Z,29.4
2023-06-21T14:19:00.577Z,29.6
2023-06-21T14:22:00.587Z,29.7
2023-06-21T14:25:02.081Z,29.8
2023-06-21T14:28:00.597Z,29.9
2023-06-21T14:31:00.618Z,30.1
2023-06-21T14:34:00.592Z,30.1
2023-06-21T14:37:00.595Z,30.1
2023-06-21T14:40:00.629Z,29.6
2023-06-21T14:43:00.607Z,29.3
2023-06-21T14:46:00.617Z,29.1
2023-06-21T14:49:00.620Z,29
2023-06-21T14:52:00.616Z,29
2023-06-21T14:55:00.636Z,29.1
2023-06-21T14:58:00.637Z,29.1
2023-06-21T15:01:00.647Z,29.2
2023-06-21T15:04:00.671Z,29.4
2023-06-21T15:07:00.642Z,29.5
2023-06-21T15:10:00.671Z,29.6
2023-06-21T15:13:02.421Z,29.7
2023-06-21T15:16:00.656Z,29.8
2023-06-21T15:19:00.671Z,29.8
2023-06-21T15:22:00.669Z,30
2023-06-21T15:25:00.671Z,30.1
2023-06-21T15:28:00.671Z,30.1
2023-06-21T15:31:00.695Z,30
2023-06-21T15:34:00.684Z,30
2023-06-21T15:37:00.687Z,30
2023-06-21T15:40:00.746Z,30
2023-06-21T15:43:00.699Z,29.9
2023-06-21T15:46:00.700Z,29.8
2023-06-21T15:49:00.708Z,29.7
2023-06-21T15:52:00.718Z,29.6
2023-06-21T15:55:00.718Z,29.7
2023-06-21T15:58:00.729Z,29.7
2023-06-21T16:01:00.729Z,29.6
2023-06-21T16:04:00.775Z,29.6
2023-06-21T16:07:00.734Z,29.5
2023-06-21T16:10:00.739Z,29.4
2023-06-21T16:13:00.753Z,29.3
2023-06-21T16:16:00.757Z,29.3
2023-06-21T16:19:00.761Z,29.3
2023-06-21T16:22:00.755Z,29.3
2023-06-21T16:25:00.777Z,29.2
2023-06-21T16:28:00.771Z,29.2
2023-06-21T16:31:00.784Z,29.1
2023-06-21T16:34:00.778Z,29
2023-06-21T16:37:00.922Z,28.8
2023-06-21T16:40:00.999Z,28.6
2023-06-21T16:43:00.802Z,28.6
2023-06-21T16:46:00.859Z,28.6
2023-06-21T16:49:00.813Z,28.7
2023-06-21T16:52:00.809Z,28.8
2023-06-21T16:55:00.810Z,28.9
2023-06-21T16:58:00.826Z,29
2023-06-21T17:01:00.818Z,29.1
2023-06-21T17:04:00.860Z,29.2
2023-06-21T17:07:00.830Z,29.3
2023-06-21T17:10:00.837Z,29.3
2023-06-21T17:13:00.876Z,29.2
2023-06-21T17:16:00.848Z,29
2023-06-21T17:19:00.852Z,28.8
2023-06-21T17:22:00.862Z,28.6
2023-06-21T17:25:00.871Z,28.5
2023-06-21T17:28:00.880Z,28.5
2023-06-21T17:31:00.886Z,28.5
2023-06-21T17:34:00.883Z,28.5
2023-06-21T17:37:00.889Z,28.5
2023-06-21T17:40:00.899Z,28.7
2023-06-21T17:43:00.894Z,28.8
2023-06-21T17:46:00.888Z,28.9
2023-06-21T17:49:01.099Z,29
2023-06-21T17:52:00.906Z,29
2023-06-21T17:55:00.903Z,28.9
2023-06-21T17:58:00.915Z,28.7
2023-06-21T18:01:00.914Z,28.7
2023-06-21T18:04:00.990Z,28.7
2023-06-21T18:07:00.941Z,28.5
2023-06-21T18:10:00.931Z,28.5
2023-06-21T18:13:00.935Z,28.4
2023-06-21T18:16:00.944Z,28.1
2023-06-21T18:19:00.963Z,27.7
2023-06-21T18:22:11.746Z,27.4
2023-06-21T18:25:00.953Z,27
2023-06-21T18:28:00.959Z,26.8
2023-06-21T18:31:00.954Z,26.6
2023-06-21T18:34:00.984Z,26.5
2023-06-21T18:37:00.969Z,26.4
2023-06-21T18:40:00.969Z,26.2
2023-06-21T18:43:00.987Z,26.1
2023-06-21T18:46:00.977Z,26
2023-06-21T18:49:00.993Z,25.9
2023-06-21T18:52:00.983Z,25.8
2023-06-21T18:55:00.996Z,25.7
2023-06-21T18:58:00.991Z,25.6
2023-06-21T19:01:01.002Z,25.4
2023-06-21T19:04:01.084Z,25.3
2023-06-21T19:07:01.018Z,25.2
2023-06-21T19:10:01.026Z,25.1
2023-06-21T19:13:01.031Z,25
2023-06-21T19:16:01.026Z,24.9
2023-06-21T19:19:01.039Z,24.8
2023-06-21T19:22:01.046Z,24.8
2023-06-21T19:25:01.187Z,24.7
2023-06-21T19:28:01.061Z,24.5
2023-06-21T19:31:01.110Z,24.4
2023-06-21T19:34:01.076Z,24.3
2023-06-21T19:37:01.087Z,24.2
2023-06-21T19:40:01.075Z,24.1
2023-06-21T19:43:01.118Z,24
2023-06-21T19:46:01.084Z,23.8
2023-06-21T19:49:01.081Z,23.8
2023-06-21T19:52:01.088Z,23.6
2023-06-21T19:55:01.093Z,23.5
2023-06-21T19:58:01.100Z,23.4
2023-06-21T20:01:01.164Z,23.3
2023-06-21T20:04:01.107Z,23.2
2023-06-21T20:07:01.117Z,23
2023-06-21T20:10:01.138Z,23
2023-06-21T20:13:01.118Z,22.9
2023-06-21T20:16:01.131Z,22.7
2023-06-21T20:19:01.145Z,22.6
2023-06-21T20:22:01.144Z,22.4
2023-06-21T20:25:01.145Z,22.2
2023-06-21T20:28:01.146Z,22
2023-06-21T20:31:01.218Z,21.9
2023-06-21T20:34:01.151Z,21.8
2023-06-21T20:37:01.158Z,21.8
2023-06-21T20:40:01.178Z,21.7
2023-06-21T20:43:01.168Z,21.7
2023-06-21T20:46:01.177Z,21.6
2023-06-21T20:49:01.175Z,21.5
2023-06-21T20:52:01.190Z,21.3
2023-06-21T20:55:01.188Z,21.2
2023-06-21T20:58:01.191Z,21.1
2023-06-21T21:01:01.235Z,21
2023-06-21T21:04:01.203Z,20.9
2023-06-21T21:07:01.213Z,20.9
2023-06-21T21:10:01.218Z,20.8
2023-06-21T21:13:01.216Z,20.7
2023-06-21T21:16:01.219Z,20.7
2023-06-21T21:19:01.228Z,20.6
2023-06-21T21:22:01.230Z,20.4
2023-06-21T21:25:01.231Z,20.3
2023-06-21T21:28:01.235Z,20.2
2023-06-21T21:31:01.271Z,20.1
2023-06-21T21:34:01.246Z,20.1
2023-06-21T21:37:01.250Z,20.1
2023-06-21T21:40:01.265Z,20.1
2023-06-21T21:43:01.272Z,20.1
2023-06-21T21:46:01.268Z,20
2023-06-21T21:49:01.270Z,19.9
2023-06-21T21:52:01.296Z,19.9
2023-06-21T21:55:01.274Z,19.9
2023-06-21T21:58:01.289Z,19.9
2023-06-21T22:01:01.295Z,19.8
2023-06-21T22:04:01.375Z,19.7
2023-06-21T22:07:01.293Z,19.7
2023-06-21T22:10:01.308Z,19.7
2023-06-21T22:13:01.318Z,19.6
2023-06-21T22:16:01.316Z,19.6
2023-06-21T22:19:01.315Z,19.5
2023-06-21T22:22:01.322Z,19.4
2023-06-21T22:25:01.336Z,19.3
2023-06-21T22:28:01.329Z,19.2
2023-06-21T22:31:01.339Z,19.1
2023-06-21T22:34:01.333Z,19.1
2023-06-21T22:37:01.344Z,19.1
2023-06-21T22:40:01.346Z,19.2
2023-06-21T22:43:01.365Z,19.1
2023-06-21T22:46:01.357Z,19
2023-06-21T22:49:01.399Z,18.9
2023-06-21T22:52:01.374Z,18.9
2023-06-21T22:55:01.379Z,18.8
2023-06-21T22:58:01.385Z,18.7
2023-06-21T23:01:01.388Z,18.5
2023-06-21T23:04:01.532Z,18.3
2023-06-21T23:07:01.397Z,18.3
2023-06-21T23:10:01.403Z,18.2
2023-06-21T23:13:01.409Z,18.2
2023-06-21T23:16:01.414Z,18.1
2023-06-21T23:19:01.407Z,18.1
2023-06-21T23:22:01.415Z,18.1
2023-06-21T23:25:01.416Z,18.1
2023-06-21T23:28:01.422Z,18.1
2023-06-21T23:31:01.448Z,18
2023-06-21T23:34:01.434Z,18
2023-06-21T23:37:01.438Z,18
2023-06-21T23:40:01.453Z,17.9
2023-06-21T23:43:01.454Z,17.8
2023-06-21T23:46:01.453Z,17.8
2023-06-21T23:49:01.464Z,17.8
2023-06-21T23:52:01.461Z,17.7
2023-06-21T23:55:01.476Z,17.6
2023-06-21T23:58:01.462Z,17.6
